sensor_id;sensor_type;location;lat;lon;timestamp;temperature;humidity
38480;DHT22;62333;51.980;5.934;2023-09-08T00:01:25;25.90;60.90
38480;DHT22;62333;51.980;5.934;2023-09-08T00:03:50;25.90;61.00
38480;DHT22;62333;51.980;5.934;2023-09-08T00:06:16;25.80;61.00
38480;DHT22;62333;51.980;5.934;2023-09-08T00:08:41;25.80;61.10
38480;DHT22;62333;51.980;5.934;2023-09-08T00:11:08;25.80;61.20
38480;DHT22;62333;51.980;5.934;2023-09-08T00:13:34;25.80;61.20
38480;DHT22;62333;51.980;5.934;2023-09-08T00:15:59;25.70;61.20
38480;DHT22;62333;51.980;5.934;2023-09-08T00:18:25;25.70;61.30
38480;DHT22;62333;51.980;5.934;2023-09-08T00:20:51;25.60;61.30
38480;DHT22;62333;51.980;5.934;2023-09-08T00:23:16;25.60;61.40
38480;DHT22;62333;51.980;5.934;2023-09-08T00:25:42;25.60;61.50
38480;DHT22;62333;51.980;5.934;2023-09-08T00:28:08;25.60;61.60
38480;DHT22;62333;51.980;5.934;2023-09-08T00:30:33;25.60;61.70
38480;DHT22;62333;51.980;5.934;2023-09-08T00:32:59;25.50;61.70
38480;DHT22;62333;51.980;5.934;2023-09-08T00:35:25;25.50;61.80
38480;DHT22;62333;51.980;5.934;2023-09-08T00:37:50;25.50;61.90
38480;DHT22;62333;51.980;5.934;2023-09-08T00:40:16;25.50;61.90
38480;DHT22;62333;51.980;5.934;2023-09-08T00:42:42;25.50;61.90
38480;DHT22;62333;51.980;5.934;2023-09-08T00:45:07;25.40;62.00
38480;DHT22;62333;51.980;5.934;2023-09-08T00:47:33;25.40;62.10
38480;DHT22;62333;51.980;5.934;2023-09-08T00:50:02;25.40;62.20
38480;DHT22;62333;51.980;5.934;2023-09-08T00:52:28;25.40;62.20
38480;DHT22;62333;51.980;5.934;2023-09-08T00:54:58;25.40;62.20
38480;DHT22;62333;51.980;5.934;2023-09-08T00:57:24;25.40;62.30
38480;DHT22;62333;51.980;5.934;2023-09-08T00:59:50;25.30;62.30
38480;DHT22;62333;51.980;5.934;2023-09-08T01:02:16;25.20;62.30
38480;DHT22;62333;51.980;5.934;2023-09-08T01:04:42;25.30;62.50
38480;DHT22;62333;51.980;5.934;2023-09-08T01:07:09;25.20;62.50
38480;DHT22;62333;51.980;5.934;2023-09-08T01:09:35;25.20;62.50
38480;DHT22;62333;51.980;5.934;2023-09-08T01:12:04;25.10;62.70
38480;DHT22;62333;51.980;5.934;2023-09-08T01:14:31;25.10;62.80
38480;DHT22;62333;51.980;5.934;2023-09-08T01:16:56;25.00;62.90
38480;DHT22;62333;51.980;5.934;2023-09-08T01:19:22;25.00;62.90
38480;DHT22;62333;51.980;5.934;2023-09-08T01:27:32;25.00;62.90
38480;DHT22;62333;51.980;5.934;2023-09-08T01:29:59;25.00;63.10
38480;DHT22;62333;51.980;5.934;2023-09-08T01:32:26;24.90;63.10
38480;DHT22;62333;51.980;5.934;2023-09-08T01:34:52;24.90;63.20
38480;DHT22;62333;51.980;5.934;2023-09-08T01:37:17;24.90;63.30
38480;DHT22;62333;51.980;5.934;2023-09-08T01:39:43;24.90;63.30
38480;DHT22;62333;51.980;5.934;2023-09-08T01:42:09;24.90;63.30
38480;DHT22;62333;51.980;5.934;2023-09-08T01:44:34;24.80;63.30
38480;DHT22;62333;51.980;5.934;2023-09-08T01:47:01;24.80;63.30
38480;DHT22;62333;51.980;5.934;2023-09-08T01:49:27;24.80;63.30
38480;DHT22;62333;51.980;5.934;2023-09-08T01:51:52;24.80;63.30
38480;DHT22;62333;51.980;5.934;2023-09-08T01:54:18;24.80;63.40
38480;DHT22;62333;51.980;5.934;2023-09-08T01:56:44;24.80;63.50
38480;DHT22;62333;51.980;5.934;2023-09-08T01:59:09;24.70;63.50
38480;DHT22;62333;51.980;5.934;2023-09-08T02:01:35;24.70;63.50
38480;DHT22;62333;51.980;5.934;2023-09-08T02:04:02;24.60;63.60
38480;DHT22;62333;51.980;5.934;2023-09-08T02:06:27;24.60;63.70
38480;DHT22;62333;51.980;5.934;2023-09-08T02:08:53;24.60;63.70
38480;DHT22;62333;51.980;5.934;2023-09-08T02:11:19;24.60;63.70
38480;DHT22;62333;51.980;5.934;2023-09-08T02:13:45;24.60;63.80
38480;DHT22;62333;51.980;5.934;2023-09-08T02:16:17;24.60;63.90
38480;DHT22;62333;51.980;5.934;2023-09-08T02:18:46;24.60;63.80
38480;DHT22;62333;51.980;5.934;2023-09-08T02:21:12;24.50;63.90
38480;DHT22;62333;51.980;5.934;2023-09-08T02:23:38;24.50;64.00
38480;DHT22;62333;51.980;5.934;2023-09-08T02:26:03;24.40;64.00
38480;DHT22;62333;51.980;5.934;2023-09-08T02:28:29;24.40;64.10
38480;DHT22;62333;51.980;5.934;2023-09-08T02:30:55;24.40;64.10
38480;DHT22;62333;51.980;5.934;2023-09-08T02:33:20;24.40;64.10
38480;DHT22;62333;51.980;5.934;2023-09-08T02:35:46;24.40;64.20
38480;DHT22;62333;51.980;5.934;2023-09-08T02:38:12;24.40;64.20
38480;DHT22;62333;51.980;5.934;2023-09-08T02:40:38;24.40;64.30
38480;DHT22;62333;51.980;5.934;2023-09-08T02:43:03;24.30;64.30
38480;DHT22;62333;51.980;5.934;2023-09-08T02:45:29;24.30;64.30
38480;DHT22;62333;51.980;5.934;2023-09-08T02:47:55;24.30;64.40
38480;DHT22;62333;51.980;5.934;2023-09-08T02:50:21;24.30;64.50
38480;DHT22;62333;51.980;5.934;2023-09-08T02:52:47;24.30;64.60
38480;DHT22;62333;51.980;5.934;2023-09-08T02:55:13;24.20;64.50
38480;DHT22;62333;51.980;5.934;2023-09-08T02:57:39;24.20;64.60
38480;DHT22;62333;51.980;5.934;2023-09-08T03:00:06;24.20;64.60
38480;DHT22;62333;51.980;5.934;2023-09-08T03:02:33;24.10;64.60
38480;DHT22;62333;51.980;5.934;2023-09-08T03:04:59;24.20;64.80
38480;DHT22;62333;51.980;5.934;2023-09-08T03:07:26;24.10;64.80
38480;DHT22;62333;51.980;5.934;2023-09-08T03:09:52;24.10;64.80
38480;DHT22;62333;51.980;5.934;2023-09-08T03:12:18;24.10;64.90
38480;DHT22;62333;51.980;5.934;2023-09-08T03:14:43;24.10;65.00
38480;DHT22;62333;51.980;5.934;2023-09-08T03:17:10;24.00;65.00
38480;DHT22;62333;51.980;5.934;2023-09-08T03:19:36;24.00;65.10
38480;DHT22;62333;51.980;5.934;2023-09-08T03:22:01;24.00;65.10
38480;DHT22;62333;51.980;5.934;2023-09-08T03:24:27;23.90;65.20
38480;DHT22;62333;51.980;5.934;2023-09-08T03:26:53;23.90;65.20
38480;DHT22;62333;51.980;5.934;2023-09-08T03:29:18;23.90;65.30
38480;DHT22;62333;51.980;5.934;2023-09-08T03:31:44;23.90;65.30
38480;DHT22;62333;51.980;5.934;2023-09-08T03:34:10;23.90;65.40
38480;DHT22;62333;51.980;5.934;2023-09-08T03:36:35;23.90;65.40
38480;DHT22;62333;51.980;5.934;2023-09-08T03:39:02;23.90;65.50
38480;DHT22;62333;51.980;5.934;2023-09-08T03:41:28;23.80;65.50
38480;DHT22;62333;51.980;5.934;2023-09-08T03:43:53;23.80;65.50
38480;DHT22;62333;51.980;5.934;2023-09-08T03:46:20;23.80;65.60
38480;DHT22;62333;51.980;5.934;2023-09-08T03:48:46;23.80;65.60
38480;DHT22;62333;51.980;5.934;2023-09-08T03:51:12;23.80;65.70
38480;DHT22;62333;51.980;5.934;2023-09-08T03:53:37;23.80;65.70
38480;DHT22;62333;51.980;5.934;2023-09-08T03:56:03;23.70;65.80
38480;DHT22;62333;51.980;5.934;2023-09-08T03:58:29;23.70;65.90
38480;DHT22;62333;51.980;5.934;2023-09-08T04:00:54;23.70;65.90
38480;DHT22;62333;51.980;5.934;2023-09-08T04:03:20;23.70;66.00
38480;DHT22;62333;51.980;5.934;2023-09-08T04:05:46;23.70;66.10
38480;DHT22;62333;51.980;5.934;2023-09-08T04:08:12;23.60;66.10
38480;DHT22;62333;51.980;5.934;2023-09-08T04:10:38;23.60;66.10
38480;DHT22;62333;51.980;5.934;2023-09-08T04:13:04;23.60;66.10
38480;DHT22;62333;51.980;5.934;2023-09-08T04:15:30;23.60;66.20
38480;DHT22;62333;51.980;5.934;2023-09-08T04:17:55;23.60;66.20
38480;DHT22;62333;51.980;5.934;2023-09-08T04:20:22;23.60;66.30
38480;DHT22;62333;51.980;5.934;2023-09-08T04:22:48;23.60;66.30
38480;DHT22;62333;51.980;5.934;2023-09-08T04:25:14;23.50;66.30
38480;DHT22;62333;51.980;5.934;2023-09-08T04:27:39;23.50;66.30
38480;DHT22;62333;51.980;5.934;2023-09-08T04:30:06;23.50;66.40
38480;DHT22;62333;51.980;5.934;2023-09-08T04:32:32;23.50;66.40
38480;DHT22;62333;51.980;5.934;2023-09-08T04:34:58;23.50;66.40
38480;DHT22;62333;51.980;5.934;2023-09-08T04:37:24;23.50;66.50
38480;DHT22;62333;51.980;5.934;2023-09-08T04:39:49;23.50;66.50
38480;DHT22;62333;51.980;5.934;2023-09-08T04:42:15;23.40;66.50
38480;DHT22;62333;51.980;5.934;2023-09-08T04:44:41;23.50;67.20
38480;DHT22;62333;51.980;5.934;2023-09-08T04:47:06;23.40;66.50
38480;DHT22;62333;51.980;5.934;2023-09-08T04:49:32;23.40;66.60
38480;DHT22;62333;51.980;5.934;2023-09-08T04:51:57;23.40;66.60
38480;DHT22;62333;51.980;5.934;2023-09-08T04:54:23;23.40;67.30
38480;DHT22;62333;51.980;5.934;2023-09-08T04:56:52;23.40;66.80
38480;DHT22;62333;51.980;5.934;2023-09-08T04:59:18;23.40;66.80
38480;DHT22;62333;51.980;5.934;2023-09-08T05:01:44;23.40;66.80
38480;DHT22;62333;51.980;5.934;2023-09-08T05:04:10;23.40;66.90
38480;DHT22;62333;51.980;5.934;2023-09-08T05:06:36;23.40;66.90
38480;DHT22;62333;51.980;5.934;2023-09-08T05:09:02;23.30;66.90
38480;DHT22;62333;51.980;5.934;2023-09-08T05:11:27;23.30;67.00
38480;DHT22;62333;51.980;5.934;2023-09-08T05:13:53;23.30;67.00
38480;DHT22;62333;51.980;5.934;2023-09-08T05:16:19;23.30;67.10
38480;DHT22;62333;51.980;5.934;2023-09-08T05:18:51;23.30;67.10
38480;DHT22;62333;51.980;5.934;2023-09-08T05:21:17;23.30;67.20
38480;DHT22;62333;51.980;5.934;2023-09-08T05:23:43;23.30;67.20
38480;DHT22;62333;51.980;5.934;2023-09-08T05:26:08;23.40;67.30
38480;DHT22;62333;51.980;5.934;2023-09-08T05:28:34;23.40;67.20
38480;DHT22;62333;51.980;5.934;2023-09-08T05:30:59;23.50;67.20
38480;DHT22;62333;51.980;5.934;2023-09-08T05:33:25;23.60;67.20
38480;DHT22;62333;51.980;5.934;2023-09-08T05:35:51;23.70;67.20
38480;DHT22;62333;51.980;5.934;2023-09-08T05:38:16;23.90;67.20
38480;DHT22;62333;51.980;5.934;2023-09-08T05:40:42;24.00;67.00
38480;DHT22;62333;51.980;5.934;2023-09-08T05:43:08;24.10;67.10
38480;DHT22;62333;51.980;5.934;2023-09-08T05:45:34;24.30;68.70
38480;DHT22;62333;51.980;5.934;2023-09-08T05:48:00;24.50;69.90
38480;DHT22;62333;51.980;5.934;2023-09-08T05:50:26;24.60;70.80
38480;DHT22;62333;51.980;5.934;2023-09-08T05:52:52;24.80;70.70
38480;DHT22;62333;51.980;5.934;2023-09-08T05:55:18;24.90;70.00
38480;DHT22;62333;51.980;5.934;2023-09-08T05:57:43;25.00;69.10
38480;DHT22;62333;51.980;5.934;2023-09-08T06:00:09;25.20;68.30
38480;DHT22;62333;51.980;5.934;2023-09-08T06:02:35;25.30;67.70
38480;DHT22;62333;51.980;5.934;2023-09-08T06:05:01;25.40;67.40
38480;DHT22;62333;51.980;5.934;2023-09-08T06:07:27;25.40;67.40
38480;DHT22;62333;51.980;5.934;2023-09-08T06:09:53;25.40;66.70
38480;DHT22;62333;51.980;5.934;2023-09-08T06:12:19;25.40;66.60
38480;DHT22;62333;51.980;5.934;2023-09-08T06:14:44;25.60;67.00
38480;DHT22;62333;51.980;5.934;2023-09-08T06:17:10;25.70;66.10
38480;DHT22;62333;51.980;5.934;2023-09-08T06:19:36;25.80;64.90
38480;DHT22;62333;51.980;5.934;2023-09-08T06:22:01;25.80;64.90
38480;DHT22;62333;51.980;5.934;2023-09-08T06:24:27;25.80;66.10
38480;DHT22;62333;51.980;5.934;2023-09-08T06:26:53;25.80;66.90
38480;DHT22;62333;51.980;5.934;2023-09-08T06:29:18;25.90;66.20
38480;DHT22;62333;51.980;5.934;2023-09-08T06:31:44;25.90;65.70
38480;DHT22;62333;51.980;5.934;2023-09-08T06:34:10;25.90;65.10
38480;DHT22;62333;51.980;5.934;2023-09-08T06:36:35;25.90;64.80
38480;DHT22;62333;51.980;5.934;2023-09-08T06:39:01;25.90;64.80
38480;DHT22;62333;51.980;5.934;2023-09-08T06:41:27;25.90;65.10
38480;DHT22;62333;51.980;5.934;2023-09-08T06:43:54;26.10;64.60
38480;DHT22;62333;51.980;5.934;2023-09-08T06:46:19;26.10;63.40
38480;DHT22;62333;51.980;5.934;2023-09-08T06:48:45;26.20;63.10
38480;DHT22;62333;51.980;5.934;2023-09-08T06:51:11;26.20;62.70
38480;DHT22;62333;51.980;5.934;2023-09-08T06:53:36;26.20;62.20
38480;DHT22;62333;51.980;5.934;2023-09-08T06:56:02;26.30;62.30
38480;DHT22;62333;51.980;5.934;2023-09-08T06:58:28;26.40;62.10
38480;DHT22;62333;51.980;5.934;2023-09-08T07:00:54;26.60;62.20
38480;DHT22;62333;51.980;5.934;2023-09-08T07:03:20;26.70;62.20
38480;DHT22;62333;51.980;5.934;2023-09-08T07:05:49;26.70;62.00
38480;DHT22;62333;51.980;5.934;2023-09-08T07:08:14;26.80;61.60
38480;DHT22;62333;51.980;5.934;2023-09-08T07:10:40;26.70;61.30
38480;DHT22;62333;51.980;5.934;2023-09-08T07:13:06;26.70;61.20
38480;DHT22;62333;51.980;5.934;2023-09-08T07:15:31;26.60;61.10
38480;DHT22;62333;51.980;5.934;2023-09-08T07:17:57;26.60;61.20
38480;DHT22;62333;51.980;5.934;2023-09-08T07:20:22;26.60;61.80
38480;DHT22;62333;51.980;5.934;2023-09-08T07:22:48;26.70;61.90
38480;DHT22;62333;51.980;5.934;2023-09-08T07:25:14;26.80;61.20
38480;DHT22;62333;51.980;5.934;2023-09-08T07:27:39;26.90;61.30
38480;DHT22;62333;51.980;5.934;2023-09-08T07:30:05;27.00;61.00
38480;DHT22;62333;51.980;5.934;2023-09-08T07:32:31;27.00;61.10
38480;DHT22;62333;51.980;5.934;2023-09-08T07:34:57;27.10;61.00
38480;DHT22;62333;51.980;5.934;2023-09-08T07:37:23;27.00;60.60
38480;DHT22;62333;51.980;5.934;2023-09-08T07:39:50;27.10;61.30
38480;DHT22;62333;51.980;5.934;2023-09-08T07:42:16;27.20;61.10
38480;DHT22;62333;51.980;5.934;2023-09-08T07:44:42;27.30;60.50
38480;DHT22;62333;51.980;5.934;2023-09-08T07:47:08;27.40;60.80
38480;DHT22;62333;51.980;5.934;2023-09-08T07:49:34;27.50;61.10
38480;DHT22;62333;51.980;5.934;2023-09-08T07:51:59;27.60;60.80
38480;DHT22;62333;51.980;5.934;2023-09-08T07:54:25;27.70;60.30
38480;DHT22;62333;51.980;5.934;2023-09-08T07:56:51;27.70;60.10
38480;DHT22;62333;51.980;5.934;2023-09-08T07:59:17;27.70;60.00
38480;DHT22;62333;51.980;5.934;2023-09-08T08:01:42;27.80;60.60
38480;DHT22;62333;51.980;5.934;2023-09-08T08:04:08;28.00;60.20
38480;DHT22;62333;51.980;5.934;2023-09-08T08:06:34;28.30;59.60
38480;DHT22;62333;51.980;5.934;2023-09-08T08:09:00;28.50;59.10
38480;DHT22;62333;51.980;5.934;2023-09-08T08:11:26;28.60;58.30
38480;DHT22;62333;51.980;5.934;2023-09-08T08:13:52;28.70;58.50
38480;DHT22;62333;51.980;5.934;2023-09-08T08:16:17;28.70;58.60
38480;DHT22;62333;51.980;5.934;2023-09-08T08:18:44;28.70;58.10
38480;DHT22;62333;51.980;5.934;2023-09-08T08:21:09;28.70;58.20
38480;DHT22;62333;51.980;5.934;2023-09-08T08:23:35;28.70;58.20
38480;DHT22;62333;51.980;5.934;2023-09-08T08:26:01;28.70;58.00
38480;DHT22;62333;51.980;5.934;2023-09-08T08:28:28;28.80;58.40
38480;DHT22;62333;51.980;5.934;2023-09-08T08:30:53;29.00;58.60
38480;DHT22;62333;51.980;5.934;2023-09-08T08:33:20;29.20;58.20
38480;DHT22;62333;51.980;5.934;2023-09-08T08:35:53;29.30;57.10
38480;DHT22;62333;51.980;5.934;2023-09-08T08:38:19;29.20;57.20
38480;DHT22;62333;51.980;5.934;2023-09-08T08:40:45;29.20;57.10
38480;DHT22;62333;51.980;5.934;2023-09-08T08:43:11;29.20;57.30
38480;DHT22;62333;51.980;5.934;2023-09-08T08:45:37;29.20;57.50
38480;DHT22;62333;51.980;5.934;2023-09-08T08:48:05;29.20;57.50
38480;DHT22;62333;51.980;5.934;2023-09-08T08:50:35;29.30;57.50
38480;DHT22;62333;51.980;5.934;2023-09-08T08:53:01;29.40;57.20
38480;DHT22;62333;51.980;5.934;2023-09-08T08:55:30;29.40;57.00
38480;DHT22;62333;51.980;5.934;2023-09-08T08:58:03;29.50;57.00
38480;DHT22;62333;51.980;5.934;2023-09-08T09:00:30;29.80;57.10
38480;DHT22;62333;51.980;5.934;2023-09-08T09:02:55;30.00;56.50
38480;DHT22;62333;51.980;5.934;2023-09-08T09:05:24;30.00;55.60
38480;DHT22;62333;51.980;5.934;2023-09-08T09:07:50;30.00;55.50
38480;DHT22;62333;51.980;5.934;2023-09-08T09:10:17;30.00;55.50
38480;DHT22;62333;51.980;5.934;2023-09-08T09:12:43;29.90;55.70
38480;DHT22;62333;51.980;5.934;2023-09-08T09:15:09;29.90;55.80
38480;DHT22;62333;51.980;5.934;2023-09-08T09:17:35;29.90;55.90
38480;DHT22;62333;51.980;5.934;2023-09-08T09:20:18;30.00;55.90
38480;DHT22;62333;51.980;5.934;2023-09-08T09:22:46;30.10;55.90
38480;DHT22;62333;51.980;5.934;2023-09-08T09:25:29;30.20;55.90
38480;DHT22;62333;51.980;5.934;2023-09-08T09:28:00;30.40;55.30
38480;DHT22;62333;51.980;5.934;2023-09-08T09:30:26;30.50;55.10
38480;DHT22;62333;51.980;5.934;2023-09-08T09:33:05;30.70;54.80
38480;DHT22;62333;51.980;5.934;2023-09-08T09:35:44;30.80;54.40
38480;DHT22;62333;51.980;5.934;2023-09-08T09:38:10;30.90;54.00
38480;DHT22;62333;51.980;5.934;2023-09-08T09:40:37;30.90;53.60
38480;DHT22;62333;51.980;5.934;2023-09-08T09:43:04;30.90;53.40
38480;DHT22;62333;51.980;5.934;2023-09-08T09:45:30;31.00;53.40
38480;DHT22;62333;51.980;5.934;2023-09-08T09:47:56;31.10;53.60
38480;DHT22;62333;51.980;5.934;2023-09-08T09:50:32;31.40;53.50
38480;DHT22;62333;51.980;5.934;2023-09-08T09:53:00;31.60;53.30
38480;DHT22;62333;51.980;5.934;2023-09-08T09:55:27;31.70;53.20
38480;DHT22;62333;51.980;5.934;2023-09-08T09:57:57;31.90;53.00
38480;DHT22;62333;51.980;5.934;2023-09-08T10:00:25;32.00;52.60
38480;DHT22;62333;51.980;5.934;2023-09-08T10:02:52;32.10;52.70
38480;DHT22;62333;51.980;5.934;2023-09-08T10:05:19;32.30;53.10
38480;DHT22;62333;51.980;5.934;2023-09-08T10:07:47;32.40;53.10
38480;DHT22;62333;51.980;5.934;2023-09-08T10:10:13;32.50;52.50
38480;DHT22;62333;51.980;5.934;2023-09-08T10:12:38;32.50;52.00
38480;DHT22;62333;51.980;5.934;2023-09-08T10:15:07;32.60;51.70
38480;DHT22;62333;51.980;5.934;2023-09-08T10:17:36;32.70;51.40
38480;DHT22;62333;51.980;5.934;2023-09-08T10:20:02;32.70;51.30
38480;DHT22;62333;51.980;5.934;2023-09-08T10:22:41;32.70;51.30
38480;DHT22;62333;51.980;5.934;2023-09-08T10:25:08;32.70;51.90
38480;DHT22;62333;51.980;5.934;2023-09-08T10:27:34;32.70;51.40
38480;DHT22;62333;51.980;5.934;2023-09-08T10:30:02;32.60;51.40
38480;DHT22;62333;51.980;5.934;2023-09-08T10:32:31;32.60;51.50
38480;DHT22;62333;51.980;5.934;2023-09-08T10:34:57;32.70;51.60
38480;DHT22;62333;51.980;5.934;2023-09-08T10:37:26;32.70;51.60
38480;DHT22;62333;51.980;5.934;2023-09-08T10:39:55;32.80;51.50
38480;DHT22;62333;51.980;5.934;2023-09-08T10:42:22;32.80;51.50
38480;DHT22;62333;51.980;5.934;2023-09-08T10:44:57;33.00;51.60
38480;DHT22;62333;51.980;5.934;2023-09-08T10:50:26;33.00;51.50
38480;DHT22;62333;51.980;5.934;2023-09-08T10:58:20;33.20;51.00
38480;DHT22;62333;51.980;5.934;2023-09-08T11:00:53;33.30;50.90
38480;DHT22;62333;51.980;5.934;2023-09-08T11:06:03;33.60;50.70
38480;DHT22;62333;51.980;5.934;2023-09-08T11:08:29;33.60;50.50
38480;DHT22;62333;51.980;5.934;2023-09-08T11:10:55;33.60;50.50
38480;DHT22;62333;51.980;5.934;2023-09-08T11:13:21;33.70;50.60
38480;DHT22;62333;51.980;5.934;2023-09-08T11:15:47;33.70;51.10
38480;DHT22;62333;51.980;5.934;2023-09-08T11:18:12;33.80;50.60
38480;DHT22;62333;51.980;5.934;2023-09-08T11:20:38;33.70;50.70
38480;DHT22;62333;51.980;5.934;2023-09-08T11:23:04;33.80;50.80
38480;DHT22;62333;51.980;5.934;2023-09-08T11:25:33;33.80;50.70
38480;DHT22;62333;51.980;5.934;2023-09-08T11:27:59;33.80;50.60
38480;DHT22;62333;51.980;5.934;2023-09-08T11:30:26;33.80;50.30
38480;DHT22;62333;51.980;5.934;2023-09-08T11:32:52;33.80;50.60
38480;DHT22;62333;51.980;5.934;2023-09-08T11:35:18;33.80;50.60
38480;DHT22;62333;51.980;5.934;2023-09-08T11:37:46;33.80;50.60
38480;DHT22;62333;51.980;5.934;2023-09-08T11:40:12;33.90;50.70
38480;DHT22;62333;51.980;5.934;2023-09-08T11:42:40;33.90;50.70
38480;DHT22;62333;51.980;5.934;2023-09-08T11:45:18;34.00;50.70
38480;DHT22;62333;51.980;5.934;2023-09-08T11:47:46;34.10;50.40
38480;DHT22;62333;51.980;5.934;2023-09-08T11:50:13;34.10;50.40
38480;DHT22;62333;51.980;5.934;2023-09-08T11:52:45;34.10;50.40
38480;DHT22;62333;51.980;5.934;2023-09-08T11:55:11;34.10;50.40
38480;DHT22;62333;51.980;5.934;2023-09-08T11:57:39;34.10;50.50
38480;DHT22;62333;51.980;5.934;2023-09-08T12:00:07;34.10;50.60
38480;DHT22;62333;51.980;5.934;2023-09-08T12:02:36;34.10;50.60
38480;DHT22;62333;51.980;5.934;2023-09-08T12:05:03;34.10;50.50
38480;DHT22;62333;51.980;5.934;2023-09-08T12:07:29;34.20;50.30
38480;DHT22;62333;51.980;5.934;2023-09-08T12:09:55;34.20;50.00
38480;DHT22;62333;51.980;5.934;2023-09-08T12:12:20;34.30;50.00
38480;DHT22;62333;51.980;5.934;2023-09-08T12:14:46;34.30;50.00
38480;DHT22;62333;51.980;5.934;2023-09-08T12:17:12;34.30;50.00
38480;DHT22;62333;51.980;5.934;2023-09-08T12:19:42;34.30;50.10
38480;DHT22;62333;51.980;5.934;2023-09-08T12:22:08;34.30;50.00
38480;DHT22;62333;51.980;5.934;2023-09-08T12:27:21;34.50;49.80
38480;DHT22;62333;51.980;5.934;2023-09-08T12:30:00;34.40;49.50
38480;DHT22;62333;51.980;5.934;2023-09-08T12:32:28;34.50;49.60
38480;DHT22;62333;51.980;5.934;2023-09-08T12:34:55;34.50;49.80
38480;DHT22;62333;51.980;5.934;2023-09-08T12:37:22;34.50;49.80
38480;DHT22;62333;51.980;5.934;2023-09-08T12:39:48;34.50;49.70
38480;DHT22;62333;51.980;5.934;2023-09-08T12:42:14;34.60;49.60
38480;DHT22;62333;51.980;5.934;2023-09-08T12:44:39;34.50;49.40
38480;DHT22;62333;51.980;5.934;2023-09-08T12:47:06;34.50;49.60
38480;DHT22;62333;51.980;5.934;2023-09-08T12:49:32;34.40;49.50
38480;DHT22;62333;51.980;5.934;2023-09-08T12:51:58;34.40;49.70
38480;DHT22;62333;51.980;5.934;2023-09-08T12:54:24;34.30;49.80
38480;DHT22;62333;51.980;5.934;2023-09-08T12:56:50;34.30;49.80
38480;DHT22;62333;51.980;5.934;2023-09-08T12:59:16;34.30;50.00
38480;DHT22;62333;51.980;5.934;2023-09-08T13:01:42;34.30;50.10
38480;DHT22;62333;51.980;5.934;2023-09-08T13:04:07;34.30;50.40
38480;DHT22;62333;51.980;5.934;2023-09-08T13:06:33;34.30;50.50
38480;DHT22;62333;51.980;5.934;2023-09-08T13:09:00;34.40;50.40
38480;DHT22;62333;51.980;5.934;2023-09-08T13:11:26;34.50;50.20
38480;DHT22;62333;51.980;5.934;2023-09-08T13:13:52;34.50;50.20
38480;DHT22;62333;51.980;5.934;2023-09-08T13:16:17;34.60;50.30
38480;DHT22;62333;51.980;5.934;2023-09-08T13:18:43;34.50;50.00
38480;DHT22;62333;51.980;5.934;2023-09-08T13:21:13;34.50;50.00
38480;DHT22;62333;51.980;5.934;2023-09-08T13:23:38;34.60;50.00
38480;DHT22;62333;51.980;5.934;2023-09-08T13:26:04;34.60;50.00
38480;DHT22;62333;51.980;5.934;2023-09-08T13:28:30;34.60;50.00
38480;DHT22;62333;51.980;5.934;2023-09-08T13:30:55;34.60;50.00
38480;DHT22;62333;51.980;5.934;2023-09-08T13:33:21;34.60;49.90
38480;DHT22;62333;51.980;5.934;2023-09-08T13:35:47;34.60;49.90
38480;DHT22;62333;51.980;5.934;2023-09-08T13:38:13;34.60;49.90
38480;DHT22;62333;51.980;5.934;2023-09-08T13:40:39;34.60;49.90
38480;DHT22;62333;51.980;5.934;2023-09-08T13:43:06;34.50;49.80
38480;DHT22;62333;51.980;5.934;2023-09-08T13:45:32;34.50;49.80
38480;DHT22;62333;51.980;5.934;2023-09-08T13:47:58;34.60;49.80
38480;DHT22;62333;51.980;5.934;2023-09-08T13:50:23;34.50;49.60
38480;DHT22;62333;51.980;5.934;2023-09-08T13:52:49;34.50;49.60
38480;DHT22;62333;51.980;5.934;2023-09-08T13:55:15;34.50;49.60
38480;DHT22;62333;51.980;5.934;2023-09-08T13:57:41;34.50;49.50
38480;DHT22;62333;51.980;5.934;2023-09-08T14:00:07;34.40;49.40
38480;DHT22;62333;51.980;5.934;2023-09-08T14:02:37;34.50;49.40
38480;DHT22;62333;51.980;5.934;2023-09-08T14:05:02;34.40;49.30
38480;DHT22;62333;51.980;5.934;2023-09-08T14:07:28;34.30;49.40
38480;DHT22;62333;51.980;5.934;2023-09-08T14:09:54;34.30;49.40
38480;DHT22;62333;51.980;5.934;2023-09-08T14:12:19;34.30;49.50
38480;DHT22;62333;51.980;5.934;2023-09-08T14:14:45;34.30;49.60
38480;DHT22;62333;51.980;5.934;2023-09-08T14:17:11;34.30;49.70
38480;DHT22;62333;51.980;5.934;2023-09-08T14:19:36;34.30;49.70
38480;DHT22;62333;51.980;5.934;2023-09-08T14:22:02;34.30;49.50
38480;DHT22;62333;51.980;5.934;2023-09-08T14:24:28;34.30;49.50
38480;DHT22;62333;51.980;5.934;2023-09-08T14:26:53;34.20;49.50
38480;DHT22;62333;51.980;5.934;2023-09-08T14:29:21;34.20;50.20
38480;DHT22;62333;51.980;5.934;2023-09-08T14:31:48;34.10;49.60
38480;DHT22;62333;51.980;5.934;2023-09-08T14:34:13;34.00;49.60
38480;DHT22;62333;51.980;5.934;2023-09-08T14:36:40;34.00;49.60
38480;DHT22;62333;51.980;5.934;2023-09-08T14:39:05;34.00;49.60
38480;DHT22;62333;51.980;5.934;2023-09-08T14:41:31;34.00;49.60
38480;DHT22;62333;51.980;5.934;2023-09-08T14:43:57;34.00;49.70
38480;DHT22;62333;51.980;5.934;2023-09-08T14:46:22;33.90;49.70
38480;DHT22;62333;51.980;5.934;2023-09-08T14:48:48;33.90;50.50
38480;DHT22;62333;51.980;5.934;2023-09-08T14:51:14;33.80;50.00
38480;DHT22;62333;51.980;5.934;2023-09-08T14:53:39;33.70;50.10
38480;DHT22;62333;51.980;5.934;2023-09-08T14:56:05;33.70;50.10
38480;DHT22;62333;51.980;5.934;2023-09-08T14:58:31;33.70;50.30
38480;DHT22;62333;51.980;5.934;2023-09-08T15:01:04;33.60;50.50
38480;DHT22;62333;51.980;5.934;2023-09-08T15:03:33;33.60;50.50
38480;DHT22;62333;51.980;5.934;2023-09-08T15:05:59;33.60;50.50
38480;DHT22;62333;51.980;5.934;2023-09-08T15:08:25;33.60;50.70
38480;DHT22;62333;51.980;5.934;2023-09-08T15:10:51;33.60;50.70
38480;DHT22;62333;51.980;5.934;2023-09-08T15:13:17;33.60;50.50
38480;DHT22;62333;51.980;5.934;2023-09-08T15:15:42;33.60;50.30
38480;DHT22;62333;51.980;5.934;2023-09-08T15:18:08;33.50;50.10
38480;DHT22;62333;51.980;5.934;2023-09-08T15:20:34;33.50;50.10
38480;DHT22;62333;51.980;5.934;2023-09-08T15:23:00;33.40;50.20
38480;DHT22;62333;51.980;5.934;2023-09-08T15:25:25;33.40;50.50
38480;DHT22;62333;51.980;5.934;2023-09-08T15:27:51;33.30;50.60
38480;DHT22;62333;51.980;5.934;2023-09-08T15:30:18;33.30;50.60
38480;DHT22;62333;51.980;5.934;2023-09-08T15:32:44;33.30;50.60
38480;DHT22;62333;51.980;5.934;2023-09-08T15:35:10;33.30;50.50
38480;DHT22;62333;51.980;5.934;2023-09-08T15:37:36;33.30;50.40
38480;DHT22;62333;51.980;5.934;2023-09-08T15:40:02;33.30;50.40
38480;DHT22;62333;51.980;5.934;2023-09-08T15:42:30;33.30;50.40
38480;DHT22;62333;51.980;5.934;2023-09-08T15:44:56;33.30;50.20